< < Back
Terminal Aerodrome Forecast


Current Version              Previous Versions:   1  2  3  4  5  6  7  8  9  

Terminal Aerodrome Forecast

660
FTUS42 KGSP 242007 AAA
TAFAND
TAF AMD
KAND 242007Z 2420/2518 26009KT P6SM SCT060
     FM242200 26006KT P6SM VCTS BKN060CB
     FM250100 30004KT P6SM VCSH SCT070 BKN250
     FM250300 33004KT P6SM BKN250
     FM250800 02004KT P6SM SCT050 BKN250=



Latest METAR

731
SAUS70 KWBC 242000
MTRAND
METAR KAND 241956Z AUTO 32008G15KT 10SM CLR 36/16 A3000 RMK AO2 SLP145
T03560156


USA.gov is the U.S. government's official web portal to all federal, state and local government web resources and services.